createdAt,value
2023-03-06T00:01:27.438Z,38.88
2023-03-06T00:04:16.366Z,35.38
2023-03-06T00:07:03.001Z,35.92
2023-03-06T00:09:49.794Z,34.83
2023-03-06T00:12:38.957Z,30.85
2023-03-06T00:15:28.481Z,31.05
2023-03-06T00:18:24.097Z,27.58
2023-03-06T00:21:16.132Z,27.65
2023-03-06T00:24:05.060Z,25.88
2023-03-06T00:26:51.046Z,26.73
2023-03-06T00:29:38.037Z,30.98
2023-03-06T00:32:26.179Z,33.63
2023-03-06T00:35:13.630Z,29.20
2023-03-06T00:38:04.653Z,29.38
2023-03-06T00:40:55.513Z,29.45
2023-03-06T00:43:42.114Z,30.77
2023-03-06T00:46:28.701Z,27.25
2023-03-06T00:49:15.336Z,29.15
2023-03-06T00:52:03.748Z,29.02
2023-03-06T00:54:49.785Z,26.80
2023-03-06T00:57:36.372Z,25.48
2023-03-06T01:00:22.539Z,25.17
2023-03-06T01:03:09.985Z,26.92
2023-03-06T01:05:57.943Z,24.25
2023-03-06T01:08:44.545Z,25.75
2023-03-06T01:11:31.526Z,26.27
2023-03-06T01:14:19.530Z,29.30
2023-03-06T01:17:06.020Z,35.33
2023-03-06T01:19:52.633Z,33.35
2023-03-06T01:22:39.053Z,32.72
2023-03-06T01:25:26.185Z,33.70
2023-03-06T01:28:12.595Z,28.90
2023-03-06T01:31:04.520Z,28.40
2023-03-06T01:33:50.425Z,25.23
2023-03-06T01:36:37.571Z,26.00
2023-03-06T01:39:25.121Z,22.88
2023-03-06T01:42:11.844Z,21.98
2023-03-06T01:45:01.392Z,18.13
2023-03-06T01:47:48.196Z,17.77
2023-03-06T01:50:34.631Z,17.42
2023-03-06T01:53:21.566Z,18.67
2023-03-06T01:56:08.082Z,17.70
2023-03-06T01:58:55.107Z,19.08
2023-03-06T02:01:42.593Z,19.17
2023-03-06T02:04:32.778Z,20.00
2023-03-06T02:07:20.359Z,20.20
2023-03-06T02:10:07.805Z,21.13
2023-03-06T02:12:54.656Z,22.52
2023-03-06T02:15:41.818Z,24.48
2023-03-06T02:18:29.499Z,23.23
2023-03-06T02:21:22.232Z,23.08
2023-03-06T02:24:30.201Z,22.73
2023-03-06T02:27:20.037Z,22.58
2023-03-06T02:30:09.865Z,26.63
2023-03-06T02:32:57.361Z,30.20
2023-03-06T02:35:49.376Z,41.83
2023-03-06T02:38:48.033Z,40.88
2023-03-06T02:41:34.250Z,37.47
2023-03-06T02:44:22.510Z,27.67
2023-03-06T02:47:14.431Z,30.08
2023-03-06T02:50:04.904Z,24.45
2023-03-06T02:52:53.859Z,22.17
2023-03-06T02:55:43.994Z,22.50
2023-03-06T02:58:30.192Z,20.95
2023-03-06T03:01:18.076Z,23.95
2023-03-06T03:04:04.698Z,25.27
2023-03-06T03:06:54.057Z,25.92
2023-03-06T03:09:40.223Z,29.10
2023-03-06T03:12:28.807Z,26.90
2023-03-06T03:15:15.257Z,22.80
2023-03-06T03:18:05.010Z,21.17
2023-03-06T03:20:55.179Z,17.80
2023-03-06T03:23:44.658Z,15.52
2023-03-06T03:26:31.279Z,15.02
2023-03-06T03:29:22.789Z,16.02
2023-03-06T03:32:09.725Z,14.98
2023-03-06T03:34:57.261Z,15.25
2023-03-06T03:37:45.117Z,19.25
2023-03-06T03:40:32.253Z,16.52
2023-03-06T03:43:19.685Z,14.85
2023-03-06T03:46:07.171Z,17.63
2023-03-06T03:48:53.795Z,24.83
2023-03-06T03:51:40.858Z,25.58
2023-03-06T03:54:27.086Z,25.45
2023-03-06T03:57:14.383Z,19.90
2023-03-06T04:00:12.088Z,18.50
2023-03-06T04:03:10.046Z,16.67
2023-03-06T04:06:03.897Z,41.10
2023-03-06T04:08:50.530Z,20.42
2023-03-06T04:11:37.650Z,17.88
2023-03-06T04:14:27.214Z,18.27
2023-03-06T04:17:33.675Z,18.88
2023-03-06T04:20:23.882Z,20.98
2023-03-06T04:23:10.428Z,19.38
2023-03-06T04:25:57.921Z,19.88
2023-03-06T04:28:44.822Z,18.50
2023-03-06T04:31:31.919Z,18.98
2023-03-06T04:34:18.308Z,24.42
2023-03-06T04:37:06.408Z,19.70
2023-03-06T04:39:55.044Z,20.42
2023-03-06T04:42:41.986Z,17.65
2023-03-06T04:45:29.887Z,21.20
2023-03-06T04:48:19.982Z,18.90
2023-03-06T04:51:06.404Z,19.10
2023-03-06T04:53:56.324Z,18.65
2023-03-06T04:56:42.460Z,20.92
2023-03-06T04:59:31.871Z,15.77
2023-03-06T05:02:18.683Z,17.52
2023-03-06T05:05:08.822Z,18.00
2023-03-06T05:07:55.753Z,18.27
2023-03-06T05:10:43.513Z,20.77
2023-03-06T05:13:29.914Z,22.50
2023-03-06T05:16:16.826Z,21.02
2023-03-06T05:19:04.106Z,20.02
2023-03-06T05:21:53.518Z,19.85
2023-03-06T05:24:42.386Z,19.17
2023-03-06T05:27:29.188Z,19.45
2023-03-06T05:30:15.752Z,19.38
2023-03-06T05:33:02.425Z,21.88
2023-03-06T05:35:48.976Z,21.52
2023-03-06T05:38:39.060Z,22.83
2023-03-06T05:41:25.423Z,19.15
2023-03-06T05:44:12.297Z,18.77
2023-03-06T05:47:00.302Z,17.77
2023-03-06T05:49:47.968Z,19.23
2023-03-06T05:52:36.993Z,20.42
2023-03-06T05:55:26.227Z,19.38
2023-03-06T05:58:12.718Z,20.90
2023-03-06T06:01:00.263Z,20.17
2023-03-06T06:03:48.447Z,21.80
2023-03-06T06:06:35.679Z,23.02
2023-03-06T06:09:22.639Z,22.20
2023-03-06T06:12:09.441Z,29.85
2023-03-06T06:14:55.948Z,25.58
2023-03-06T06:17:42.653Z,22.10
2023-03-06T06:20:29.231Z,23.60
2023-03-06T06:23:16.290Z,24.55
2023-03-06T06:26:07.879Z,28.50
2023-03-06T06:28:59.746Z,25.95
2023-03-06T06:31:46.631Z,24.67
2023-03-06T06:34:39.631Z,22.30
2023-03-06T06:37:26.202Z,24.33
2023-03-06T06:40:13.070Z,22.42
2023-03-06T06:43:02.288Z,23.45
2023-03-06T06:45:49.709Z,24.13
2023-03-06T06:48:37.842Z,24.88
2023-03-06T06:51:24.695Z,26.77
2023-03-06T06:54:23.633Z,24.33
2023-03-06T06:57:11.868Z,22.05
2023-03-06T06:59:58.687Z,24.00
2023-03-06T07:02:49.267Z,27.92
2023-03-06T07:05:35.471Z,34.22
2023-03-06T07:08:22.704Z,31.23
2023-03-06T07:11:12.952Z,27.77
2023-03-06T07:13:59.694Z,29.73
2023-03-06T07:16:46.259Z,28.15
2023-03-06T07:19:33.050Z,33.25
2023-03-06T07:22:22.730Z,31.40
2023-03-06T07:25:09.655Z,24.80
2023-03-06T07:27:56.325Z,21.70
2023-03-06T07:30:43.899Z,35.05
2023-03-06T07:33:32.854Z,17.83
2023-03-06T07:36:20.319Z,13.73
2023-03-06T07:39:07.775Z,14.00
2023-03-06T07:41:54.425Z,11.15
2023-03-06T07:44:43.779Z,6.50
2023-03-06T07:47:30.447Z,5.82
2023-03-06T07:50:18.817Z,6.75
2023-03-06T07:53:10.730Z,8.13
2023-03-06T07:58:48.384Z,7.47
2023-03-06T08:01:36.516Z,8.73
2023-03-06T08:04:23.481Z,11.07
2023-03-06T08:07:10.062Z,12.48
2023-03-06T08:09:56.721Z,13.82
2023-03-06T08:12:46.243Z,7.32
2023-03-06T08:15:33.586Z,9.38
2023-03-06T08:18:24.709Z,20.13
2023-03-06T08:21:16.320Z,25.70
2023-03-06T08:26:49.126Z,4.85
2023-03-06T08:29:35.839Z,6.40
2023-03-06T08:32:23.095Z,6.88
2023-03-06T08:35:09.714Z,10.23
2023-03-06T08:37:56.990Z,9.02
2023-03-06T08:40:43.663Z,12.27
2023-03-06T08:43:30.199Z,22.10
2023-03-06T08:46:21.443Z,13.25
2023-03-06T08:51:54.513Z,16.85
2023-03-06T08:54:41.011Z,20.52
2023-03-06T08:57:28.536Z,74.90
2023-03-06T09:00:15.834Z,16.90
2023-03-06T09:03:02.251Z,15.63
2023-03-06T09:05:48.564Z,16.90
2023-03-06T09:08:37.658Z,21.50
2023-03-06T09:11:28.726Z,19.83
2023-03-06T09:14:15.061Z,13.35
2023-03-06T09:17:01.353Z,11.52
2023-03-06T09:19:53.908Z,11.32
2023-03-06T09:22:42.552Z,12.05
2023-03-06T09:28:18.485Z,14.77
2023-03-06T09:31:16.235Z,9.63
2023-03-06T09:34:03.017Z,9.68
2023-03-06T09:36:56.831Z,15.75
2023-03-06T09:39:43.807Z,13.35
2023-03-06T09:42:31.678Z,13.07
2023-03-06T09:45:20.663Z,16.60
2023-03-06T09:48:16.236Z,13.80
2023-03-06T09:51:10.608Z,15.15
2023-03-06T09:54:13.532Z,13.00
2023-03-06T09:57:03.676Z,13.65
2023-03-06T09:59:56.055Z,19.35
2023-03-06T10:02:50.859Z,13.25
2023-03-06T10:05:43.507Z,12.20
2023-03-06T10:08:39.366Z,13.25
2023-03-06T10:11:34.573Z,15.63
2023-03-06T10:14:46.630Z,32.08
2023-03-06T10:17:37.769Z,65.07
2023-03-06T10:20:38.566Z,24.13
2023-03-06T10:23:52.566Z,13.43
2023-03-06T10:26:45.302Z,27.92
2023-03-06T10:29:41.055Z,9.18
2023-03-06T10:32:49.443Z,10.80
2023-03-06T10:35:48.905Z,10.00
2023-03-06T10:38:41.241Z,14.25
2023-03-06T10:41:32.078Z,21.70
2023-03-06T10:44:21.109Z,71.05
2023-03-06T10:47:27.846Z,47.17
2023-03-06T10:50:34.754Z,44.22
2023-03-06T10:53:25.410Z,23.60
2023-03-06T10:59:11.638Z,30.45
2023-03-06T11:02:21.437Z,13.43
2023-03-06T11:05:21.105Z,14.27
2023-03-06T11:08:21.907Z,38.67
2023-03-06T11:11:12.513Z,20.48
2023-03-06T11:14:02.261Z,8.30
2023-03-06T11:16:53.367Z,21.60
2023-03-06T11:19:43.406Z,26.92
2023-03-06T11:22:30.088Z,22.05
2023-03-06T11:25:21.618Z,14.40
2023-03-06T11:28:17.592Z,40.05
2023-03-06T11:31:06.676Z,131.95
2023-03-06T11:33:56.575Z,29.55
2023-03-06T11:36:48.894Z,9.27
2023-03-06T11:39:49.550Z,41.70
2023-03-06T11:42:39.740Z,12.65
2023-03-06T11:45:34.827Z,13.50
2023-03-06T11:48:23.938Z,12.48
2023-03-06T11:51:26.010Z,14.52
2023-03-06T11:54:13.441Z,33.63
2023-03-06T11:57:18.764Z,18.85
2023-03-06T12:00:30.050Z,17.05
2023-03-06T12:06:30.388Z,17.77
2023-03-06T12:09:24.522Z,14.13
2023-03-06T12:12:23.167Z,19.98
2023-03-06T12:15:40.756Z,14.15
2023-03-06T12:18:58.109Z,12.48
2023-03-06T12:22:12.660Z,13.30
2023-03-06T12:25:11.715Z,13.93
2023-03-06T12:28:00.969Z,12.43
2023-03-06T12:31:06.328Z,14.82
2023-03-06T12:34:12.555Z,10.52
2023-03-06T12:37:27.067Z,12.88
2023-03-06T12:40:38.943Z,12.43
2023-03-06T12:43:47.604Z,11.15
2023-03-06T12:46:42.003Z,15.55
2023-03-06T12:49:33.019Z,12.57
2023-03-06T12:55:22.713Z,12.77
2023-03-06T12:58:30.673Z,11.77
2023-03-06T13:01:32.919Z,12.18
2023-03-06T13:04:35.757Z,11.32
2023-03-06T13:07:32.378Z,11.10
2023-03-06T13:10:27.137Z,11.50
2023-03-06T13:13:46.397Z,11.35
2023-03-06T13:16:34.972Z,11.70
2023-03-06T13:19:26.749Z,12.68
2023-03-06T13:22:30.226Z,10.98
2023-03-06T13:25:17.395Z,11.13
2023-03-06T13:28:04.828Z,18.85
2023-03-06T13:30:56.119Z,13.35
2023-03-06T13:33:48.002Z,14.70
2023-03-06T13:36:39.556Z,28.75
2023-03-06T13:42:26.526Z,21.52
2023-03-06T13:45:24.551Z,14.18
2023-03-06T13:48:43.101Z,11.52
2023-03-06T13:51:35.008Z,21.52
2023-03-06T13:54:55.672Z,12.55
2023-03-06T13:57:57.075Z,10.98
2023-03-06T14:00:46.604Z,12.27
2023-03-06T14:04:04.486Z,9.88
2023-03-06T14:06:52.776Z,11.25
2023-03-06T14:09:44.730Z,10.50
2023-03-06T14:12:34.642Z,9.40
2023-03-06T14:15:23.746Z,13.18
2023-03-06T14:18:17.092Z,13.63
2023-03-06T14:21:05.720Z,15.10
2023-03-06T14:24:01.440Z,9.27
2023-03-06T14:26:50.775Z,8.00
2023-03-06T14:29:37.516Z,9.77
2023-03-06T14:32:24.522Z,13.48
2023-03-06T14:35:23.325Z,9.85
2023-03-06T14:38:12.980Z,10.70
2023-03-06T14:41:03.605Z,9.15
2023-03-06T14:43:50.393Z,9.20
2023-03-06T14:46:40.289Z,9.73
2023-03-06T14:49:27.214Z,9.15
2023-03-06T14:52:21.037Z,11.32
2023-03-06T14:55:11.879Z,9.15
2023-03-06T14:58:02.428Z,10.23
2023-03-06T15:00:51.630Z,9.43
2023-03-06T15:03:48.699Z,8.57
2023-03-06T15:06:39.728Z,9.88
2023-03-06T15:09:32.040Z,12.13
2023-03-06T15:12:22.805Z,10.52
2023-03-06T15:15:12.851Z,9.75
2023-03-06T15:18:00.405Z,9.75
2023-03-06T15:20:56.078Z,10.73
2023-03-06T15:23:49.446Z,9.02
2023-03-06T15:26:37.142Z,10.80
2023-03-06T15:29:24.136Z,10.65
2023-03-06T15:32:31.205Z,9.52
2023-03-06T15:35:37.342Z,11.05
2023-03-06T15:38:45.833Z,9.93
2023-03-06T15:41:40.026Z,10.32
2023-03-06T15:44:31.970Z,9.48
2023-03-06T15:47:18.334Z,9.40
2023-03-06T15:50:17.272Z,10.68
2023-03-06T15:53:03.935Z,10.60
2023-03-06T15:55:51.769Z,11.07
2023-03-06T15:58:39.273Z,10.73
2023-03-06T16:01:26.690Z,11.52
2023-03-06T16:04:14.043Z,12.02
2023-03-06T16:07:00.462Z,10.80
2023-03-06T16:09:47.493Z,11.38
2023-03-06T16:12:34.383Z,13.52
2023-03-06T16:15:23.198Z,11.93
2023-03-06T16:18:11.295Z,12.00
2023-03-06T16:20:57.867Z,12.38
2023-03-06T16:23:44.641Z,12.02
2023-03-06T16:26:35.286Z,14.23
2023-03-06T16:32:11.900Z,13.95
2023-03-06T16:34:58.700Z,11.98
2023-03-06T16:37:46.046Z,12.88
2023-03-06T16:40:37.793Z,11.30
2023-03-06T16:43:24.254Z,11.60
2023-03-06T16:46:22.840Z,11.70
2023-03-06T16:49:19.032Z,11.23
2023-03-06T16:52:09.017Z,10.90
2023-03-06T16:54:55.588Z,11.05
2023-03-06T16:57:42.068Z,12.32
2023-03-06T17:00:32.055Z,12.45
2023-03-06T17:03:18.802Z,12.98
2023-03-06T17:06:20.304Z,11.90
2023-03-06T17:09:07.594Z,12.13
2023-03-06T17:11:54.151Z,13.20
2023-03-06T17:14:40.777Z,13.38
2023-03-06T17:17:32.411Z,13.45
2023-03-06T17:20:19.980Z,17.17
2023-03-06T17:23:06.418Z,19.05
2023-03-06T17:26:02.755Z,19.95
2023-03-06T17:28:49.522Z,19.63
2023-03-06T17:31:38.776Z,21.00
2023-03-06T17:34:25.320Z,25.08
2023-03-06T17:37:11.817Z,27.10
2023-03-06T17:39:58.723Z,27.10
2023-03-06T17:42:45.691Z,30.13
2023-03-06T17:45:34.315Z,26.60
2023-03-06T17:48:23.741Z,31.27
2023-03-06T17:51:10.845Z,29.60
2023-03-06T17:53:57.643Z,29.33
2023-03-06T17:56:44.581Z,31.77
2023-03-06T17:59:34.001Z,70.32
2023-03-06T18:02:20.250Z,73.10
2023-03-06T18:05:07.563Z,57.70
2023-03-06T18:07:53.955Z,68.05
2023-03-06T18:10:41.878Z,51.92
2023-03-06T18:13:28.476Z,48.00
2023-03-06T18:16:17.498Z,41.53
2023-03-06T18:19:07.581Z,36.47
2023-03-06T18:21:54.917Z,36.65
2023-03-06T18:24:53.872Z,43.45
2023-03-06T18:27:40.863Z,62.78
2023-03-06T18:30:27.665Z,90.80
2023-03-06T18:33:14.621Z,59.88
2023-03-06T18:36:04.096Z,75.32
2023-03-06T18:38:51.490Z,63.92
2023-03-06T18:41:39.628Z,62.97
2023-03-06T18:44:26.501Z,66.22
2023-03-06T18:47:15.616Z,60.72
2023-03-06T18:50:05.386Z,62.00
2023-03-06T18:52:51.566Z,58.38
2023-03-06T18:55:38.535Z,58.47
2023-03-06T18:58:24.916Z,59.20
2023-03-06T19:01:12.094Z,57.88
2023-03-06T19:04:02.759Z,55.67
2023-03-06T19:06:52.226Z,52.40
2023-03-06T19:09:38.899Z,55.22
2023-03-06T19:12:25.684Z,52.83
2023-03-06T19:15:12.576Z,59.92
2023-03-06T19:18:05.666Z,57.40
2023-03-06T19:21:17.737Z,59.55
2023-03-06T19:24:13.363Z,56.80
2023-03-06T19:26:59.975Z,53.55
2023-03-06T19:29:46.784Z,50.08
2023-03-06T19:32:49.707Z,46.75
2023-03-06T19:36:05.897Z,50.55
2023-03-06T19:38:58.572Z,55.95
2023-03-06T19:44:33.400Z,57.95
2023-03-06T19:47:20.266Z,71.50
2023-03-06T19:50:07.244Z,77.25
2023-03-06T19:52:54.912Z,65.45
2023-03-06T19:55:44.631Z,64.10
2023-03-06T19:58:31.766Z,67.22
2023-03-06T20:01:21.357Z,66.22
2023-03-06T20:04:08.215Z,64.60
2023-03-06T20:06:56.356Z,75.85
2023-03-06T20:09:44.310Z,82.90
2023-03-06T20:12:33.865Z,73.72
2023-03-06T20:15:22.369Z,72.20
2023-03-06T20:18:09.161Z,70.55
2023-03-06T20:21:02.181Z,65.70
2023-03-06T20:23:51.112Z,64.13
2023-03-06T20:26:38.644Z,88.70
2023-03-06T20:29:28.252Z,64.28
2023-03-06T20:32:14.808Z,64.55
2023-03-06T20:35:02.046Z,65.30
2023-03-06T20:37:48.293Z,63.20
2023-03-06T20:40:38.916Z,64.93
2023-03-06T20:43:28.432Z,64.75
2023-03-06T20:46:16.557Z,62.60
2023-03-06T20:49:03.377Z,63.30
2023-03-06T20:51:50.500Z,57.17
2023-03-06T20:54:36.809Z,58.72
2023-03-06T20:57:23.805Z,54.22
2023-03-06T21:00:11.966Z,51.65
2023-03-06T21:02:58.726Z,48.88
2023-03-06T21:05:48.657Z,49.42
2023-03-06T21:08:35.875Z,51.85
2023-03-06T21:11:22.373Z,55.17
2023-03-06T21:14:11.481Z,50.40
2023-03-06T21:16:59.396Z,51.10
2023-03-06T21:19:47.252Z,50.55
2023-03-06T21:22:33.588Z,47.50
2023-03-06T21:25:20.739Z,51.95
2023-03-06T21:28:07.381Z,47.65
2023-03-06T21:30:54.536Z,51.83
2023-03-06T21:33:41.230Z,49.20
2023-03-06T21:36:28.294Z,48.00
2023-03-06T21:39:14.532Z,46.08
2023-03-06T21:42:01.294Z,47.33
2023-03-06T21:44:47.853Z,46.63
2023-03-06T21:47:38.887Z,40.90
2023-03-06T21:50:25.746Z,40.13
2023-03-06T21:53:12.556Z,43.63
2023-03-06T21:56:01.627Z,43.53
2023-03-06T21:59:00.344Z,43.63
2023-03-06T22:01:47.655Z,44.10
2023-03-06T22:04:34.511Z,39.00
2023-03-06T22:07:21.367Z,35.40
2023-03-06T22:10:12.326Z,36.17
2023-03-06T22:12:58.882Z,35.63
2023-03-06T22:15:53.024Z,33.55
2023-03-06T22:18:39.378Z,30.23
2023-03-06T22:21:26.411Z,30.50
2023-03-06T22:24:12.653Z,32.60
2023-03-06T22:26:59.515Z,32.70
2023-03-06T22:29:46.243Z,31.85
2023-03-06T22:32:32.902Z,33.53
2023-03-06T22:35:20.336Z,36.45
2023-03-06T22:38:07.196Z,38.83
2023-03-06T22:40:57.135Z,40.70
2023-03-06T22:43:44.153Z,40.42
2023-03-06T22:46:32.133Z,38.83
2023-03-06T22:49:19.186Z,36.78
2023-03-06T22:52:05.648Z,37.22
2023-03-06T22:54:52.453Z,35.00
2023-03-06T22:57:38.874Z,35.05
2023-03-06T23:00:25.851Z,38.97
2023-03-06T23:03:12.041Z,40.42
2023-03-06T23:05:58.637Z,39.58
2023-03-06T23:08:49.365Z,36.28
2023-03-06T23:11:36.108Z,35.85
2023-03-06T23:14:41.437Z,34.58
2023-03-06T23:17:46.894Z,35.13
2023-03-06T23:20:51.480Z,34.65
2023-03-06T23:23:56.832Z,38.17
2023-03-06T23:26:43.435Z,42.75
2023-03-06T23:29:30.078Z,44.15
2023-03-06T23:32:16.568Z,39.42
2023-03-06T23:35:03.233Z,38.80
2023-03-06T23:37:49.767Z,35.75
2023-03-06T23:40:37.988Z,40.35
2023-03-06T23:43:24.433Z,41.75
2023-03-06T23:46:11.259Z,40.28
2023-03-06T23:48:57.632Z,42.45
2023-03-06T23:51:44.260Z,41.63
2023-03-06T23:54:30.754Z,43.15
2023-03-06T23:57:17.200Z,40.05
